sensor_id;sensor_type;location;lat;lon;timestamp;temperature;humidity
47921;DHT22;33686;48.770;9.186;2023-07-31T05:15:35;17.80;99.90
47921;DHT22;33686;48.770;9.186;2023-07-31T05:18:01;17.90;99.90
47921;DHT22;33686;48.770;9.186;2023-07-31T05:20:27;17.90;99.90
47921;DHT22;33686;48.770;9.186;2023-07-31T05:22:53;18.00;99.90
47921;DHT22;33686;48.770;9.186;2023-07-31T05:25:18;18.10;99.90
47921;DHT22;33686;48.770;9.186;2023-07-31T05:27:44;18.10;99.90
47921;DHT22;33686;48.770;9.186;2023-07-31T05:30:10;18.20;99.90
47921;DHT22;33686;48.770;9.186;2023-07-31T05:32:35;18.30;99.90
47921;DHT22;33686;48.770;9.186;2023-07-31T05:35:01;18.40;99.90
47921;DHT22;33686;48.770;9.186;2023-07-31T05:37:27;18.90;99.90
47921;DHT22;33686;48.770;9.186;2023-07-31T05:39:52;19.40;99.90
47921;DHT22;33686;48.770;9.186;2023-07-31T05:42:18;19.90;99.90
47921;DHT22;33686;48.770;9.186;2023-07-31T05:44:43;20.30;99.90
47921;DHT22;33686;48.770;9.186;2023-07-31T05:47:09;20.60;99.90
47921;DHT22;33686;48.770;9.186;2023-07-31T05:49:35;20.40;99.90
47921;DHT22;33686;48.770;9.186;2023-07-31T05:52:00;20.10;99.90
47921;DHT22;33686;48.770;9.186;2023-07-31T05:54:26;20.10;99.90
47921;DHT22;33686;48.770;9.186;2023-07-31T05:56:51;20.20;99.90
47921;DHT22;33686;48.770;9.186;2023-07-31T05:59:17;20.20;99.90
47921;DHT22;33686;48.770;9.186;2023-07-31T06:01:42;20.20;99.90
47921;DHT22;33686;48.770;9.186;2023-07-31T06:04:08;20.30;99.90
47921;DHT22;33686;48.770;9.186;2023-07-31T06:06:34;20.60;99.90
47921;DHT22;33686;48.770;9.186;2023-07-31T06:08:59;21.00;99.90
47921;DHT22;33686;48.770;9.186;2023-07-31T06:11:25;21.10;99.90
47921;DHT22;33686;48.770;9.186;2023-07-31T06:13:50;21.80;99.90
47921;DHT22;33686;48.770;9.186;2023-07-31T06:16:16;22.60;99.90
47921;DHT22;33686;48.770;9.186;2023-07-31T06:18:42;23.60;99.90
47921;DHT22;33686;48.770;9.186;2023-07-31T06:21:08;24.10;99.90
47921;DHT22;33686;48.770;9.186;2023-07-31T06:23:33;24.60;99.90
47921;DHT22;33686;48.770;9.186;2023-07-31T06:25:59;24.60;99.90
47921;DHT22;33686;48.770;9.186;2023-07-31T06:28:28;25.00;99.90
47921;DHT22;33686;48.770;9.186;2023-07-31T06:30:54;25.40;99.90
47921;DHT22;33686;48.770;9.186;2023-07-31T06:33:20;26.00;99.90
47921;DHT22;33686;48.770;9.186;2023-07-31T06:35:45;26.00;99.70
47921;DHT22;33686;48.770;9.186;2023-07-31T06:38:11;25.90;99.50
47921;DHT22;33686;48.770;9.186;2023-07-31T06:40:36;26.30;98.90
47921;DHT22;33686;48.770;9.186;2023-07-31T06:43:02;25.50;99.30
47921;DHT22;33686;48.770;9.186;2023-07-31T06:45:36;24.70;99.90
47921;DHT22;33686;48.770;9.186;2023-07-31T06:48:02;24.10;99.90
47921;DHT22;33686;48.770;9.186;2023-07-31T06:50:28;24.80;99.90
47921;DHT22;33686;48.770;9.186;2023-07-31T06:52:54;24.70;99.90
47921;DHT22;33686;48.770;9.186;2023-07-31T06:55:20;24.70;99.90
47921;DHT22;33686;48.770;9.186;2023-07-31T06:57:46;24.30;99.90
47921;DHT22;33686;48.770;9.186;2023-07-31T07:00:12;24.90;99.90
47921;DHT22;33686;48.770;9.186;2023-07-31T07:02:37;25.70;99.60
47921;DHT22;33686;48.770;9.186;2023-07-31T07:05:03;25.70;99.30
47921;DHT22;33686;48.770;9.186;2023-07-31T07:07:28;24.90;99.90
47921;DHT22;33686;48.770;9.186;2023-07-31T07:09:54;24.80;99.90
47921;DHT22;33686;48.770;9.186;2023-07-31T07:12:19;24.70;99.90
47921;DHT22;33686;48.770;9.186;2023-07-31T07:14:45;24.50;99.90
47921;DHT22;33686;48.770;9.186;2023-07-31T07:17:13;24.60;99.90
47921;DHT22;33686;48.770;9.186;2023-07-31T07:19:40;24.90;99.90
47921;DHT22;33686;48.770;9.186;2023-07-31T07:22:06;24.90;99.90
47921;DHT22;33686;48.770;9.186;2023-07-31T07:24:31;24.80;99.90
47921;DHT22;33686;48.770;9.186;2023-07-31T07:26:57;24.80;99.90
47921;DHT22;33686;48.770;9.186;2023-07-31T07:29:22;26.20;99.50
47921;DHT22;33686;48.770;9.186;2023-07-31T07:31:48;26.60;98.40
47921;DHT22;33686;48.770;9.186;2023-07-31T07:34:13;26.40;98.00
47921;DHT22;33686;48.770;9.186;2023-07-31T07:36:39;26.00;98.30
47921;DHT22;33686;48.770;9.186;2023-07-31T07:39:04;25.80;98.30
47921;DHT22;33686;48.770;9.186;2023-07-31T07:41:30;25.40;98.70
47921;DHT22;33686;48.770;9.186;2023-07-31T07:43:56;25.40;99.40
47921;DHT22;33686;48.770;9.186;2023-07-31T07:46:21;25.40;99.00
47921;DHT22;33686;48.770;9.186;2023-07-31T07:48:47;25.70;98.50
47921;DHT22;33686;48.770;9.186;2023-07-31T07:51:13;26.10;98.40
47921;DHT22;33686;48.770;9.186;2023-07-31T07:53:38;26.10;98.60
47921;DHT22;33686;48.770;9.186;2023-07-31T07:56:04;26.90;97.40
47921;DHT22;33686;48.770;9.186;2023-07-31T07:58:29;27.70;96.60
47921;DHT22;33686;48.770;9.186;2023-07-31T08:00:55;28.30;96.10
47921;DHT22;33686;48.770;9.186;2023-07-31T08:03:20;28.70;96.50
47921;DHT22;33686;48.770;9.186;2023-07-31T08:05:46;28.50;95.10
47921;DHT22;33686;48.770;9.186;2023-07-31T08:08:14;28.20;95.30
47921;DHT22;33686;48.770;9.186;2023-07-31T08:10:40;28.30;94.90
47921;DHT22;33686;48.770;9.186;2023-07-31T08:13:05;28.60;94.60
47921;DHT22;33686;48.770;9.186;2023-07-31T08:15:31;29.10;94.70
47921;DHT22;33686;48.770;9.186;2023-07-31T08:17:56;28.90;94.10
47921;DHT22;33686;48.770;9.186;2023-07-31T08:20:22;28.90;94.00
47921;DHT22;33686;48.770;9.186;2023-07-31T08:22:48;28.90;94.10
47921;DHT22;33686;48.770;9.186;2023-07-31T08:25:14;29.20;93.70
47921;DHT22;33686;48.770;9.186;2023-07-31T08:27:43;29.10;93.50
47921;DHT22;33686;48.770;9.186;2023-07-31T08:30:08;29.60;93.10
47921;DHT22;33686;48.770;9.186;2023-07-31T08:32:34;30.00;92.60
47921;DHT22;33686;48.770;9.186;2023-07-31T08:35:00;29.20;92.80
47921;DHT22;33686;48.770;9.186;2023-07-31T08:37:25;29.30;92.90
47921;DHT22;33686;48.770;9.186;2023-07-31T08:39:51;28.80;92.80
47921;DHT22;33686;48.770;9.186;2023-07-31T08:42:16;29.50;92.30
47921;DHT22;33686;48.770;9.186;2023-07-31T08:44:42;28.80;92.80
47921;DHT22;33686;48.770;9.186;2023-07-31T08:47:08;28.80;93.20
47921;DHT22;33686;48.770;9.186;2023-07-31T08:49:35;27.90;94.10
47921;DHT22;33686;48.770;9.186;2023-07-31T08:52:01;27.60;94.00
47921;DHT22;33686;48.770;9.186;2023-07-31T08:54:27;27.80;94.10
47921;DHT22;33686;48.770;9.186;2023-07-31T08:56:56;26.90;94.60
47921;DHT22;33686;48.770;9.186;2023-07-31T08:59:22;27.00;94.80
47921;DHT22;33686;48.770;9.186;2023-07-31T09:01:49;27.40;94.80
47921;DHT22;33686;48.770;9.186;2023-07-31T09:04:15;27.50;95.10
47921;DHT22;33686;48.770;9.186;2023-07-31T09:06:42;26.70;95.70
47921;DHT22;33686;48.770;9.186;2023-07-31T09:09:07;26.10;96.80
47921;DHT22;33686;48.770;9.186;2023-07-31T09:11:34;26.60;96.80
47921;DHT22;33686;48.770;9.186;2023-07-31T09:14:00;27.00;95.20
47921;DHT22;33686;48.770;9.186;2023-07-31T09:16:27;26.70;95.50
47921;DHT22;33686;48.770;9.186;2023-07-31T09:18:56;26.60;95.10
47921;DHT22;33686;48.770;9.186;2023-07-31T09:21:22;26.90;95.30
47921;DHT22;33686;48.770;9.186;2023-07-31T09:23:48;26.30;96.10
47921;DHT22;33686;48.770;9.186;2023-07-31T09:26:28;26.70;95.60
47921;DHT22;33686;48.770;9.186;2023-07-31T09:28:54;26.50;95.50
47921;DHT22;33686;48.770;9.186;2023-07-31T09:31:32;26.30;95.90
47921;DHT22;33686;48.770;9.186;2023-07-31T09:33:58;25.70;96.80
47921;DHT22;33686;48.770;9.186;2023-07-31T09:36:28;25.40;97.00
47921;DHT22;33686;48.770;9.186;2023-07-31T09:38:54;25.70;96.80
47921;DHT22;33686;48.770;9.186;2023-07-31T09:41:20;25.20;97.10
47921;DHT22;33686;48.770;9.186;2023-07-31T09:43:53;25.20;97.40
47921;DHT22;33686;48.770;9.186;2023-07-31T09:46:21;24.90;98.10
47921;DHT22;33686;48.770;9.186;2023-07-31T09:48:47;24.70;98.50
47921;DHT22;33686;48.770;9.186;2023-07-31T09:51:12;24.50;98.70
47921;DHT22;33686;48.770;9.186;2023-07-31T09:53:38;25.40;98.00
47921;DHT22;33686;48.770;9.186;2023-07-31T09:56:03;26.30;97.00
47921;DHT22;33686;48.770;9.186;2023-07-31T09:58:30;27.20;95.70
47921;DHT22;33686;48.770;9.186;2023-07-31T10:00:58;27.40;95.20
47921;DHT22;33686;48.770;9.186;2023-07-31T10:03:24;27.30;95.10
47921;DHT22;33686;48.770;9.186;2023-07-31T10:05:52;27.00;95.50
47921;DHT22;33686;48.770;9.186;2023-07-31T10:08:19;26.10;96.30
47921;DHT22;33686;48.770;9.186;2023-07-31T10:10:47;26.10;96.30
47921;DHT22;33686;48.770;9.186;2023-07-31T10:13:12;26.30;95.60
47921;DHT22;33686;48.770;9.186;2023-07-31T10:15:39;26.50;95.30
47921;DHT22;33686;48.770;9.186;2023-07-31T10:18:06;26.80;95.30
47921;DHT22;33686;48.770;9.186;2023-07-31T10:20:32;26.40;95.30
47921;DHT22;33686;48.770;9.186;2023-07-31T10:22:58;26.00;95.80
47921;DHT22;33686;48.770;9.186;2023-07-31T10:25:25;25.80;96.20
47921;DHT22;33686;48.770;9.186;2023-07-31T10:27:51;26.00;96.10
47921;DHT22;33686;48.770;9.186;2023-07-31T10:30:19;26.00;96.00
47921;DHT22;33686;48.770;9.186;2023-07-31T10:32:45;26.10;96.30
47921;DHT22;33686;48.770;9.186;2023-07-31T10:35:12;26.30;96.20
47921;DHT22;33686;48.770;9.186;2023-07-31T10:37:38;26.20;96.20
47921;DHT22;33686;48.770;9.186;2023-07-31T10:40:05;26.40;96.00
47921;DHT22;33686;48.770;9.186;2023-07-31T10:45:03;25.80;96.40
47921;DHT22;33686;48.770;9.186;2023-07-31T10:47:29;26.00;96.30
47921;DHT22;33686;48.770;9.186;2023-07-31T10:52:39;25.70;96.10
47921;DHT22;33686;48.770;9.186;2023-07-31T10:56:05;25.40;96.60
47921;DHT22;33686;48.770;9.186;2023-07-31T10:58:09;24.90;97.00
47921;DHT22;33686;48.770;9.186;2023-07-31T11:00:44;24.90;97.80
47921;DHT22;33686;48.770;9.186;2023-07-31T11:03:12;25.50;97.10
47921;DHT22;33686;48.770;9.186;2023-07-31T11:05:41;25.20;96.90
47921;DHT22;33686;48.770;9.186;2023-07-31T11:08:14;25.40;97.00
47921;DHT22;33686;48.770;9.186;2023-07-31T11:10:39;25.00;97.20
47921;DHT22;33686;48.770;9.186;2023-07-31T11:13:05;25.20;97.20
47921;DHT22;33686;48.770;9.186;2023-07-31T11:15:31;24.90;97.50
47921;DHT22;33686;48.770;9.186;2023-07-31T11:17:57;25.10;97.50
47921;DHT22;33686;48.770;9.186;2023-07-31T11:20:25;25.10;97.40
47921;DHT22;33686;48.770;9.186;2023-07-31T11:22:50;25.10;97.20
47921;DHT22;33686;48.770;9.186;2023-07-31T11:25:16;24.90;97.50
47921;DHT22;33686;48.770;9.186;2023-07-31T11:27:43;24.70;97.60
47921;DHT22;33686;48.770;9.186;2023-07-31T11:30:09;24.70;97.80
47921;DHT22;33686;48.770;9.186;2023-07-31T11:32:38;24.70;97.70
47921;DHT22;33686;48.770;9.186;2023-07-31T11:35:04;24.70;97.80
47921;DHT22;33686;48.770;9.186;2023-07-31T11:37:49;24.50;98.10
47921;DHT22;33686;48.770;9.186;2023-07-31T11:40:14;24.50;98.20
47921;DHT22;33686;48.770;9.186;2023-07-31T11:42:40;24.50;98.20
47921;DHT22;33686;48.770;9.186;2023-07-31T11:45:07;24.40;98.40
47921;DHT22;33686;48.770;9.186;2023-07-31T11:47:33;24.50;98.50
47921;DHT22;33686;48.770;9.186;2023-07-31T11:50:00;24.70;98.40
47921;DHT22;33686;48.770;9.186;2023-07-31T11:52:26;24.70;98.10
47921;DHT22;33686;48.770;9.186;2023-07-31T11:54:52;24.90;98.20
47921;DHT22;33686;48.770;9.186;2023-07-31T11:57:18;25.00;97.90
47921;DHT22;33686;48.770;9.186;2023-07-31T11:59:45;25.00;98.10
47921;DHT22;33686;48.770;9.186;2023-07-31T12:02:10;25.10;98.20
47921;DHT22;33686;48.770;9.186;2023-07-31T12:04:36;25.00;97.80
47921;DHT22;33686;48.770;9.186;2023-07-31T12:07:01;25.00;98.20
47921;DHT22;33686;48.770;9.186;2023-07-31T12:09:27;25.10;97.90
47921;DHT22;33686;48.770;9.186;2023-07-31T12:11:53;25.10;98.40
47921;DHT22;33686;48.770;9.186;2023-07-31T12:14:22;25.30;98.00
47921;DHT22;33686;48.770;9.186;2023-07-31T12:16:52;25.50;98.10
47921;DHT22;33686;48.770;9.186;2023-07-31T12:19:18;25.40;97.80
47921;DHT22;33686;48.770;9.186;2023-07-31T12:21:44;25.30;98.20
47921;DHT22;33686;48.770;9.186;2023-07-31T12:24:10;25.20;98.10
47921;DHT22;33686;48.770;9.186;2023-07-31T12:26:35;24.90;98.40
47921;DHT22;33686;48.770;9.186;2023-07-31T12:29:01;25.00;98.60
47921;DHT22;33686;48.770;9.186;2023-07-31T12:31:27;24.90;98.70
47921;DHT22;33686;48.770;9.186;2023-07-31T12:33:53;25.00;98.50
47921;DHT22;33686;48.770;9.186;2023-07-31T12:36:22;24.90;98.60
47921;DHT22;33686;48.770;9.186;2023-07-31T12:38:48;24.70;98.80
47921;DHT22;33686;48.770;9.186;2023-07-31T12:41:14;24.50;99.30
47921;DHT22;33686;48.770;9.186;2023-07-31T12:43:40;24.70;99.10
47921;DHT22;33686;48.770;9.186;2023-07-31T12:46:06;24.50;98.60
47921;DHT22;33686;48.770;9.186;2023-07-31T12:48:36;24.40;98.70
47921;DHT22;33686;48.770;9.186;2023-07-31T12:51:02;24.20;98.90
47921;DHT22;33686;48.770;9.186;2023-07-31T12:53:28;24.20;99.00
47921;DHT22;33686;48.770;9.186;2023-07-31T12:55:53;24.20;99.00
47921;DHT22;33686;48.770;9.186;2023-07-31T12:58:19;24.20;99.40
47921;DHT22;33686;48.770;9.186;2023-07-31T13:00:44;24.10;99.30
47921;DHT22;33686;48.770;9.186;2023-07-31T13:03:10;24.10;99.40
47921;DHT22;33686;48.770;9.186;2023-07-31T13:05:36;24.20;99.70
47921;DHT22;33686;48.770;9.186;2023-07-31T13:08:01;24.30;99.30
47921;DHT22;33686;48.770;9.186;2023-07-31T13:10:27;24.50;99.30
47921;DHT22;33686;48.770;9.186;2023-07-31T13:12:54;24.70;99.50
47921;DHT22;33686;48.770;9.186;2023-07-31T13:15:19;24.50;99.40
47921;DHT22;33686;48.770;9.186;2023-07-31T13:17:45;24.30;99.50
47921;DHT22;33686;48.770;9.186;2023-07-31T13:20:11;24.40;99.60
47921;DHT22;33686;48.770;9.186;2023-07-31T13:22:36;24.30;99.60
47921;DHT22;33686;48.770;9.186;2023-07-31T13:25:02;24.50;99.60
47921;DHT22;33686;48.770;9.186;2023-07-31T13:27:28;24.40;99.50
47921;DHT22;33686;48.770;9.186;2023-07-31T13:29:53;24.30;99.30
47921;DHT22;33686;48.770;9.186;2023-07-31T13:32:19;24.40;99.50
47921;DHT22;33686;48.770;9.186;2023-07-31T13:34:45;24.30;99.20
47921;DHT22;33686;48.770;9.186;2023-07-31T13:37:11;24.60;98.80
47921;DHT22;33686;48.770;9.186;2023-07-31T13:39:37;24.70;98.60
47921;DHT22;33686;48.770;9.186;2023-07-31T13:42:02;24.80;98.70
47921;DHT22;33686;48.770;9.186;2023-07-31T13:44:28;24.70;98.80
47921;DHT22;33686;48.770;9.186;2023-07-31T13:46:54;24.70;99.20
47921;DHT22;33686;48.770;9.186;2023-07-31T13:49:19;24.60;99.30
47921;DHT22;33686;48.770;9.186;2023-07-31T13:51:45;24.30;99.90
47921;DHT22;33686;48.770;9.186;2023-07-31T13:54:11;24.70;99.50
47921;DHT22;33686;48.770;9.186;2023-07-31T13:56:37;24.70;99.50
47921;DHT22;33686;48.770;9.186;2023-07-31T13:59:02;24.80;99.20
47921;DHT22;33686;48.770;9.186;2023-07-31T14:01:28;24.90;99.00
47921;DHT22;33686;48.770;9.186;2023-07-31T14:03:54;24.90;99.60
47921;DHT22;33686;48.770;9.186;2023-07-31T14:06:19;25.00;98.90
47921;DHT22;33686;48.770;9.186;2023-07-31T14:08:45;25.00;99.50
47921;DHT22;33686;48.770;9.186;2023-07-31T14:11:10;24.90;99.30
47921;DHT22;33686;48.770;9.186;2023-07-31T14:13:36;25.10;99.00
47921;DHT22;33686;48.770;9.186;2023-07-31T14:16:02;25.00;99.00
47921;DHT22;33686;48.770;9.186;2023-07-31T14:18:27;24.90;99.30
47921;DHT22;33686;48.770;9.186;2023-07-31T14:20:53;25.00;99.50
47921;DHT22;33686;48.770;9.186;2023-07-31T14:23:18;25.00;99.50
47921;DHT22;33686;48.770;9.186;2023-07-31T14:25:45;24.90;99.80
47921;DHT22;33686;48.770;9.186;2023-07-31T14:28:11;25.10;99.80
47921;DHT22;33686;48.770;9.186;2023-07-31T14:30:36;25.10;99.40
47921;DHT22;33686;48.770;9.186;2023-07-31T14:33:02;25.20;99.50
47921;DHT22;33686;48.770;9.186;2023-07-31T14:35:28;25.30;99.50
47921;DHT22;33686;48.770;9.186;2023-07-31T14:37:53;25.10;99.90
47921;DHT22;33686;48.770;9.186;2023-07-31T14:40:19;24.80;99.90
47921;DHT22;33686;48.770;9.186;2023-07-31T14:42:44;25.00;99.90
47921;DHT22;33686;48.770;9.186;2023-07-31T14:45:10;24.90;99.90
47921;DHT22;33686;48.770;9.186;2023-07-31T14:47:35;25.10;99.90
47921;DHT22;33686;48.770;9.186;2023-07-31T14:50:01;25.20;99.70
47921;DHT22;33686;48.770;9.186;2023-07-31T14:52:27;25.20;99.60
47921;DHT22;33686;48.770;9.186;2023-07-31T14:54:53;25.30;99.60
47921;DHT22;33686;48.770;9.186;2023-07-31T14:57:18;25.30;99.30
47921;DHT22;33686;48.770;9.186;2023-07-31T14:59:45;25.30;99.20
47921;DHT22;33686;48.770;9.186;2023-07-31T15:02:11;25.20;98.90
47921;DHT22;33686;48.770;9.186;2023-07-31T15:04:36;25.30;98.90
47921;DHT22;33686;48.770;9.186;2023-07-31T15:07:02;25.20;99.10
47921;DHT22;33686;48.770;9.186;2023-07-31T15:09:28;25.30;98.60
47921;DHT22;33686;48.770;9.186;2023-07-31T15:11:53;25.50;98.60
47921;DHT22;33686;48.770;9.186;2023-07-31T15:14:19;25.60;98.50
47921;DHT22;33686;48.770;9.186;2023-07-31T15:16:45;25.60;98.50
47921;DHT22;33686;48.770;9.186;2023-07-31T15:19:11;25.50;98.30
47921;DHT22;33686;48.770;9.186;2023-07-31T15:21:36;25.60;98.20
47921;DHT22;33686;48.770;9.186;2023-07-31T15:24:02;25.50;98.20
47921;DHT22;33686;48.770;9.186;2023-07-31T15:26:28;25.70;98.10
47921;DHT22;33686;48.770;9.186;2023-07-31T15:29:04;25.60;98.90
47921;DHT22;33686;48.770;9.186;2023-07-31T15:31:34;25.10;99.10
47921;DHT22;33686;48.770;9.186;2023-07-31T15:33:59;24.50;99.90
47921;DHT22;33686;48.770;9.186;2023-07-31T15:36:25;24.00;99.90
47921;DHT22;33686;48.770;9.186;2023-07-31T15:38:50;24.00;99.90
47921;DHT22;33686;48.770;9.186;2023-07-31T15:41:17;23.90;99.90
47921;DHT22;33686;48.770;9.186;2023-07-31T15:43:43;23.60;99.90
47921;DHT22;33686;48.770;9.186;2023-07-31T15:46:08;23.50;99.90
47921;DHT22;33686;48.770;9.186;2023-07-31T15:48:34;23.50;99.90
47921;DHT22;33686;48.770;9.186;2023-07-31T15:50:59;23.50;99.90
47921;DHT22;33686;48.770;9.186;2023-07-31T15:53:26;23.60;99.90
47921;DHT22;33686;48.770;9.186;2023-07-31T15:55:51;23.70;99.90
47921;DHT22;33686;48.770;9.186;2023-07-31T15:58:17;23.80;99.90
47921;DHT22;33686;48.770;9.186;2023-07-31T16:00:43;23.90;99.90
47921;DHT22;33686;48.770;9.186;2023-07-31T16:03:08;23.90;99.90
47921;DHT22;33686;48.770;9.186;2023-07-31T16:05:33;24.10;99.90
47921;DHT22;33686;48.770;9.186;2023-07-31T16:07:59;24.30;99.90
47921;DHT22;33686;48.770;9.186;2023-07-31T16:10:25;24.30;99.90
47921;DHT22;33686;48.770;9.186;2023-07-31T16:12:51;24.40;99.90
47921;DHT22;33686;48.770;9.186;2023-07-31T16:15:16;24.50;99.90
47921;DHT22;33686;48.770;9.186;2023-07-31T16:17:44;24.60;99.90
47921;DHT22;33686;48.770;9.186;2023-07-31T16:20:10;24.50;99.90
47921;DHT22;33686;48.770;9.186;2023-07-31T16:22:35;24.50;99.90
47921;DHT22;33686;48.770;9.186;2023-07-31T16:25:01;24.30;99.90
47921;DHT22;33686;48.770;9.186;2023-07-31T16:27:26;24.30;99.90
47921;DHT22;33686;48.770;9.186;2023-07-31T16:29:52;24.30;99.90
47921;DHT22;33686;48.770;9.186;2023-07-31T16:32:17;24.30;99.90
47921;DHT22;33686;48.770;9.186;2023-07-31T16:34:43;24.20;99.90
47921;DHT22;33686;48.770;9.186;2023-07-31T16:37:08;24.20;99.90
47921;DHT22;33686;48.770;9.186;2023-07-31T16:39:34;24.20;99.90
47921;DHT22;33686;48.770;9.186;2023-07-31T16:42:01;24.20;99.90
47921;DHT22;33686;48.770;9.186;2023-07-31T16:44:27;24.30;99.90
47921;DHT22;33686;48.770;9.186;2023-07-31T16:46:53;24.30;99.90
47921;DHT22;33686;48.770;9.186;2023-07-31T16:49:18;24.00;99.90
47921;DHT22;33686;48.770;9.186;2023-07-31T16:51:44;23.90;99.90
47921;DHT22;33686;48.770;9.186;2023-07-31T16:54:09;23.60;99.90
47921;DHT22;33686;48.770;9.186;2023-07-31T16:56:35;23.60;99.90
47921;DHT22;33686;48.770;9.186;2023-07-31T16:59:01;23.50;99.90
47921;DHT22;33686;48.770;9.186;2023-07-31T17:01:26;23.50;99.90
47921;DHT22;33686;48.770;9.186;2023-07-31T17:03:56;23.50;99.90
47921;DHT22;33686;48.770;9.186;2023-07-31T17:06:22;23.50;99.90
47921;DHT22;33686;48.770;9.186;2023-07-31T17:08:47;23.40;99.90
47921;DHT22;33686;48.770;9.186;2023-07-31T17:11:13;23.40;99.90
47921;DHT22;33686;48.770;9.186;2023-07-31T17:13:38;23.40;99.90
47921;DHT22;33686;48.770;9.186;2023-07-31T17:16:04;23.40;99.90
47921;DHT22;33686;48.770;9.186;2023-07-31T17:18:30;23.30;99.90
47921;DHT22;33686;48.770;9.186;2023-07-31T17:20:55;23.20;99.90
47921;DHT22;33686;48.770;9.186;2023-07-31T17:23:21;23.10;99.90
47921;DHT22;33686;48.770;9.186;2023-07-31T17:25:46;23.00;99.90
47921;DHT22;33686;48.770;9.186;2023-07-31T17:28:12;23.00;99.90
47921;DHT22;33686;48.770;9.186;2023-07-31T17:30:37;22.90;99.90
47921;DHT22;33686;48.770;9.186;2023-07-31T17:33:03;22.90;99.90
47921;DHT22;33686;48.770;9.186;2023-07-31T17:35:28;22.90;99.90
47921;DHT22;33686;48.770;9.186;2023-07-31T17:37:54;22.90;99.90
47921;DHT22;33686;48.770;9.186;2023-07-31T17:40:20;22.90;99.90
47921;DHT22;33686;48.770;9.186;2023-07-31T17:42:45;22.80;99.90
47921;DHT22;33686;48.770;9.186;2023-07-31T17:45:11;22.80;99.90
47921;DHT22;33686;48.770;9.186;2023-07-31T17:47:37;22.80;99.90
47921;DHT22;33686;48.770;9.186;2023-07-31T17:50:02;22.90;99.90
47921;DHT22;33686;48.770;9.186;2023-07-31T17:52:29;22.80;99.90
47921;DHT22;33686;48.770;9.186;2023-07-31T17:54:54;22.80;99.90
47921;DHT22;33686;48.770;9.186;2023-07-31T17:57:20;22.80;99.90
47921;DHT22;33686;48.770;9.186;2023-07-31T17:59:46;22.80;99.90
47921;DHT22;33686;48.770;9.186;2023-07-31T18:02:12;22.80;99.90
47921;DHT22;33686;48.770;9.186;2023-07-31T18:04:38;22.80;99.90
47921;DHT22;33686;48.770;9.186;2023-07-31T18:07:04;22.70;99.90
47921;DHT22;33686;48.770;9.186;2023-07-31T18:09:29;22.80;99.90
47921;DHT22;33686;48.770;9.186;2023-07-31T18:11:55;22.70;99.90
47921;DHT22;33686;48.770;9.186;2023-07-31T18:14:21;22.50;99.90
47921;DHT22;33686;48.770;9.186;2023-07-31T18:16:50;22.30;99.90
47921;DHT22;33686;48.770;9.186;2023-07-31T18:19:15;22.20;99.90
47921;DHT22;33686;48.770;9.186;2023-07-31T18:21:41;22.20;99.90
47921;DHT22;33686;48.770;9.186;2023-07-31T18:24:06;22.00;99.90
47921;DHT22;33686;48.770;9.186;2023-07-31T18:26:32;21.80;99.90
47921;DHT22;33686;48.770;9.186;2023-07-31T18:28:58;21.50;99.90
47921;DHT22;33686;48.770;9.186;2023-07-31T18:31:23;21.40;99.90
47921;DHT22;33686;48.770;9.186;2023-07-31T18:33:49;21.40;99.90
47921;DHT22;33686;48.770;9.186;2023-07-31T18:36:14;21.40;99.90
47921;DHT22;33686;48.770;9.186;2023-07-31T18:38:40;21.40;99.90
47921;DHT22;33686;48.770;9.186;2023-07-31T18:41:05;21.40;99.90
47921;DHT22;33686;48.770;9.186;2023-07-31T18:43:31;21.30;99.90
47921;DHT22;33686;48.770;9.186;2023-07-31T18:45:57;21.20;99.90
47921;DHT22;33686;48.770;9.186;2023-07-31T18:48:23;21.10;99.90
47921;DHT22;33686;48.770;9.186;2023-07-31T18:50:50;21.10;99.90
47921;DHT22;33686;48.770;9.186;2023-07-31T18:53:15;21.20;99.90
47921;DHT22;33686;48.770;9.186;2023-07-31T18:55:43;20.90;99.90
47921;DHT22;33686;48.770;9.186;2023-07-31T18:58:08;20.60;99.90
47921;DHT22;33686;48.770;9.186;2023-07-31T19:00:34;20.70;99.90
47921;DHT22;33686;48.770;9.186;2023-07-31T19:02:59;20.70;99.90
47921;DHT22;33686;48.770;9.186;2023-07-31T19:05:25;20.70;99.90
47921;DHT22;33686;48.770;9.186;2023-07-31T19:07:50;20.60;99.90
47921;DHT22;33686;48.770;9.186;2023-07-31T19:10:16;20.40;99.90
47921;DHT22;33686;48.770;9.186;2023-07-31T19:12:42;20.30;99.90
47921;DHT22;33686;48.770;9.186;2023-07-31T19:15:08;20.30;99.90
47921;DHT22;33686;48.770;9.186;2023-07-31T19:17:35;20.00;99.90
47921;DHT22;33686;48.770;9.186;2023-07-31T19:20:02;20.00;99.90
47921;DHT22;33686;48.770;9.186;2023-07-31T19:22:28;20.10;99.90
47921;DHT22;33686;48.770;9.186;2023-07-31T19:24:53;20.10;99.90
47921;DHT22;33686;48.770;9.186;2023-07-31T19:27:19;20.10;99.90
47921;DHT22;33686;48.770;9.186;2023-07-31T19:29:44;20.10;99.90
47921;DHT22;33686;48.770;9.186;2023-07-31T19:32:10;20.00;99.90
47921;DHT22;33686;48.770;9.186;2023-07-31T19:34:38;20.00;99.90
47921;DHT22;33686;48.770;9.186;2023-07-31T19:37:03;20.00;99.90
47921;DHT22;33686;48.770;9.186;2023-07-31T19:39:29;19.90;99.90
47921;DHT22;33686;48.770;9.186;2023-07-31T19:41:55;19.90;99.90
47921;DHT22;33686;48.770;9.186;2023-07-31T19:44:20;19.90;99.90
47921;DHT22;33686;48.770;9.186;2023-07-31T19:46:46;19.80;99.90
47921;DHT22;33686;48.770;9.186;2023-07-31T19:49:11;19.70;99.90
47921;DHT22;33686;48.770;9.186;2023-07-31T19:51:37;19.80;99.90
47921;DHT22;33686;48.770;9.186;2023-07-31T19:54:03;19.80;99.90
47921;DHT22;33686;48.770;9.186;2023-07-31T19:56:28;19.80;99.90
47921;DHT22;33686;48.770;9.186;2023-07-31T19:58:54;19.70;99.90
47921;DHT22;33686;48.770;9.186;2023-07-31T20:01:19;19.60;99.90
47921;DHT22;33686;48.770;9.186;2023-07-31T20:03:45;19.50;99.90
47921;DHT22;33686;48.770;9.186;2023-07-31T20:06:10;19.50;99.90
47921;DHT22;33686;48.770;9.186;2023-07-31T20:08:36;19.40;99.90
47921;DHT22;33686;48.770;9.186;2023-07-31T20:11:01;19.20;99.90
47921;DHT22;33686;48.770;9.186;2023-07-31T20:13:28;19.10;99.90
47921;DHT22;33686;48.770;9.186;2023-07-31T20:15:54;19.10;99.90
47921;DHT22;33686;48.770;9.186;2023-07-31T20:18:19;19.30;99.90
47921;DHT22;33686;48.770;9.186;2023-07-31T20:20:45;19.30;99.90
47921;DHT22;33686;48.770;9.186;2023-07-31T20:23:11;19.20;99.90
47921;DHT22;33686;48.770;9.186;2023-07-31T20:25:36;19.10;99.90
47921;DHT22;33686;48.770;9.186;2023-07-31T20:28:03;18.70;99.90
47921;DHT22;33686;48.770;9.186;2023-07-31T20:30:29;18.80;99.90
47921;DHT22;33686;48.770;9.186;2023-07-31T20:32:55;18.40;99.90
47921;DHT22;33686;48.770;9.186;2023-07-31T20:35:22;18.30;99.90
47921;DHT22;33686;48.770;9.186;2023-07-31T20:37:47;18.20;99.90
47921;DHT22;33686;48.770;9.186;2023-07-31T20:40:13;18.20;99.90
47921;DHT22;33686;48.770;9.186;2023-07-31T20:42:38;18.40;99.90